Time;durP1;ratioP1;P1;durP2;ratioP2;P2;SDS_P1;SDS_P2;PMS_P1;PMS_P2;Temp;Humidity;BMP_temperature;BMP_pressure;BME280_temperature;BME280_humidity;BME280_pressure;Samples;Min_cycle;Max_cycle;Signal;HPM_P1;HPM_P2
2022/08/16 00:00:10;;;;;;;;;;;20.00;99.90;;;;;;5016472;28;19912;-77
2022/08/16 00:02:36;;;;;;;;;;;20.00;99.90;;;;;;5016733;28;19910;-74
2022/08/16 00:05:03;;;;;;;;;;;20.00;99.90;;;;;;5016408;28;19905;-74
2022/08/16 00:07:29;;;;;;;;;;;20.00;99.90;;;;;;5016617;28;20381;-77
2022/08/16 00:09:54;;;;;;;;;;;19.90;99.90;;;;;;5015594;28;19948;-77
2022/08/16 00:12:20;;;;;;;;;;;20.00;99.90;;;;;;5015494;28;19909;-74
2022/08/16 00:14:45;;;;;;;;;;;20.00;99.90;;;;;;5016247;28;19905;-73
2022/08/16 00:17:11;;;;;;;;;;;20.00;99.90;;;;;;5016146;28;19909;-74
2022/08/16 00:19:36;;;;;;;;;;;20.00;99.90;;;;;;5017130;28;19905;-77
2022/08/16 00:22:02;;;;;;;;;;;20.00;99.90;;;;;;5016128;28;19952;-77
2022/08/16 00:24:28;;;;;;;;;;;20.00;99.90;;;;;;5015840;28;19906;-76
2022/08/16 00:26:54;;;;;;;;;;;20.00;99.90;;;;;;5016246;28;19912;-77
2022/08/16 00:29:19;;;;;;;;;;;20.00;99.90;;;;;;5014838;28;19906;-77
2022/08/16 00:31:46;;;;;;;;;;;20.00;99.90;;;;;;5016002;28;19910;-74
2022/08/16 00:34:11;;;;;;;;;;;20.00;99.90;;;;;;5015702;28;19964;-76
2022/08/16 00:36:37;;;;;;;;;;;20.00;99.90;;;;;;5016704;28;19944;-77
2022/08/16 00:39:03;;;;;;;;;;;20.00;99.90;;;;;;5015525;28;19916;-77
2022/08/16 00:41:29;;;;;;;;;;;20.00;99.90;;;;;;5009479;28;20435;-74
2022/08/16 00:43:55;;;;;;;;;;;20.00;99.90;;;;;;5010329;28;19905;-77
2022/08/16 00:46:20;;;;;;;;;;;20.00;99.90;;;;;;5011084;28;19913;-77
2022/08/16 00:48:46;;;;;;;;;;;20.00;99.90;;;;;;5004378;28;20389;-77
2022/08/16 00:51:13;;;;;;;;;;;20.00;99.90;;;;;;5015640;28;19913;-77
2022/08/16 00:53:38;;;;;;;;;;;20.00;99.90;;;;;;5015109;28;19925;-74
2022/08/16 00:56:05;;;;;;;;;;;20.00;99.90;;;;;;5015274;28;19905;-76
2022/08/16 00:58:31;;;;;;;;;;;20.00;99.90;;;;;;5015052;28;19912;-77
2022/08/16 01:00:57;;;;;;;;;;;20.00;99.90;;;;;;5015522;28;19971;-77
2022/08/16 01:03:24;;;;;;;;;;;20.00;99.90;;;;;;5015237;28;20364;-77
2022/08/16 01:05:50;;;;;;;;;;;20.00;99.90;;;;;;5015396;28;20348;-77
2022/08/16 01:08:17;;;;;;;;;;;20.00;99.90;;;;;;5014962;28;19906;-76
2022/08/16 01:10:43;;;;;;;;;;;20.00;99.90;;;;;;5015184;28;19913;-76
2022/08/16 01:13:20;;;;;;;;;;;20.00;99.90;;;;;;5014672;28;19971;-77
2022/08/16 01:15:47;;;;;;;;;;;20.00;99.90;;;;;;5013573;28;20347;-77
2022/08/16 01:18:16;;;;;;;;;;;20.00;99.90;;;;;;5014701;28;20004;-76
2022/08/16 01:20:44;;;;;;;;;;;19.90;99.90;;;;;;5015604;28;20372;-74
2022/08/16 01:23:15;;;;;;;;;;;20.00;99.90;;;;;;5013935;28;19905;-74
2022/08/16 01:25:43;;;;;;;;;;;20.00;99.90;;;;;;5014946;28;19905;-77
2022/08/16 01:28:11;;;;;;;;;;;20.00;99.90;;;;;;5014623;28;19905;-74
2022/08/16 01:30:38;;;;;;;;;;;20.00;99.90;;;;;;5013839;28;19917;-77
2022/08/16 01:33:05;;;;;;;;;;;20.00;99.90;;;;;;5018152;28;19912;-74
2022/08/16 01:35:36;;;;;;;;;;;20.00;99.90;;;;;;5016602;28;19905;-74
2022/08/16 01:38:13;;;;;;;;;;;20.00;99.90;;;;;;5014623;28;20376;-77
2022/08/16 01:40:39;;;;;;;;;;;20.00;99.90;;;;;;5014512;28;19916;-74
2022/08/16 01:43:05;;;;;;;;;;;20.00;99.90;;;;;;5005817;28;19906;-77
2022/08/16 01:45:30;;;;;;;;;;;19.90;99.90;;;;;;5014385;28;20324;-75
2022/08/16 01:47:56;;;;;;;;;;;19.90;99.90;;;;;;5014601;28;20010;-74
2022/08/16 01:50:21;;;;;;;;;;;19.90;99.90;;;;;;5014167;28;19952;-76
2022/08/16 01:52:47;;;;;;;;;;;19.80;99.90;;;;;;5014532;28;19917;-77
2022/08/16 01:55:15;;;;;;;;;;;19.80;99.90;;;;;;5014240;28;19913;-77
2022/08/16 01:57:40;;;;;;;;;;;19.70;99.90;;;;;;5013839;28;19909;-77
2022/08/16 02:00:09;;;;;;;;;;;19.60;99.90;;;;;;5014361;28;19905;-76
2022/08/16 02:02:34;;;;;;;;;;;19.50;99.90;;;;;;5014306;28;19964;-75
2022/08/16 02:05:00;;;;;;;;;;;19.40;99.90;;;;;;5014110;28;19905;-74
2022/08/16 02:07:25;;;;;;;;;;;19.40;99.90;;;;;;5014113;28;19988;-75
2022/08/16 02:09:52;;;;;;;;;;;19.30;99.90;;;;;;5013994;28;20012;-77
2022/08/16 02:12:18;;;;;;;;;;;19.30;99.90;;;;;;5013424;28;19909;-74
2022/08/16 02:14:43;;;;;;;;;;;19.30;99.90;;;;;;5014137;28;20395;-74
2022/08/16 02:17:10;;;;;;;;;;;19.30;99.90;;;;;;5013898;28;19912;-77
2022/08/16 02:19:37;;;;;;;;;;;19.30;99.90;;;;;;5014934;28;20420;-77
2022/08/16 02:22:03;;;;;;;;;;;19.20;99.90;;;;;;5013720;28;19909;-76
2022/08/16 02:24:29;;;;;;;;;;;19.20;99.90;;;;;;5013628;28;20014;-74
2022/08/16 02:26:55;;;;;;;;;;;19.10;99.90;;;;;;5013946;28;19911;-77
2022/08/16 02:29:21;;;;;;;;;;;19.00;99.90;;;;;;5013412;28;19905;-73
2022/08/16 02:31:47;;;;;;;;;;;19.00;99.90;;;;;;5012889;28;20399;-73
2022/08/16 02:34:13;;;;;;;;;;;19.00;99.90;;;;;;5013763;28;19906;-74
2022/08/16 02:36:40;;;;;;;;;;;18.90;99.90;;;;;;5015687;28;19996;-77
2022/08/16 02:39:06;;;;;;;;;;;18.90;99.90;;;;;;5014063;28;19913;-74
2022/08/16 02:41:32;;;;;;;;;;;18.90;99.90;;;;;;5004741;28;19916;-74
2022/08/16 02:43:58;;;;;;;;;;;18.90;99.90;;;;;;5011233;28;19906;-76
2022/08/16 02:46:25;;;;;;;;;;;18.90;99.90;;;;;;5013366;28;19906;-77
2022/08/16 02:48:50;;;;;;;;;;;19.00;99.90;;;;;;5015334;28;19959;-77
2022/08/16 02:51:16;;;;;;;;;;;19.00;99.90;;;;;;5014086;28;19910;-77
2022/08/16 02:53:43;;;;;;;;;;;19.00;99.90;;;;;;5013312;28;19918;-77
2022/08/16 02:56:11;;;;;;;;;;;19.00;99.90;;;;;;5013405;28;20357;-77
2022/08/16 02:58:37;;;;;;;;;;;19.10;99.90;;;;;;5014327;28;19905;-74
2022/08/16 03:01:02;;;;;;;;;;;19.10;99.90;;;;;;5020241;28;19948;-77
2022/08/16 03:03:28;;;;;;;;;;;19.20;99.90;;;;;;5019823;28;19955;-74
2022/08/16 03:05:54;;;;;;;;;;;19.20;99.90;;;;;;5019958;28;19905;-74
2022/08/16 03:08:21;;;;;;;;;;;19.20;99.90;;;;;;5019386;28;20360;-77
2022/08/16 03:10:48;;;;;;;;;;;19.20;99.90;;;;;;5019840;28;19910;-77
2022/08/16 03:13:16;;;;;;;;;;;19.30;99.90;;;;;;5029350;28;19905;-77
2022/08/16 03:15:42;;;;;;;;;;;19.30;99.90;;;;;;5020086;28;20392;-74
2022/08/16 03:18:08;;;;;;;;;;;19.40;99.90;;;;;;5018743;28;20261;-73
2022/08/16 03:20:33;;;;;;;;;;;19.40;99.90;;;;;;5021106;28;19909;-77
2022/08/16 03:22:59;;;;;;;;;;;19.40;99.90;;;;;;5019565;28;19905;-73
2022/08/16 03:25:25;;;;;;;;;;;19.50;99.90;;;;;;5019881;28;19906;-77
2022/08/16 03:27:50;;;;;;;;;;;19.50;99.90;;;;;;5019138;28;19906;-77
2022/08/16 03:30:20;;;;;;;;;;;19.50;99.90;;;;;;5019784;28;19905;-74
2022/08/16 03:32:45;;;;;;;;;;;19.50;99.90;;;;;;5018494;28;19905;-74
2022/08/16 03:35:11;;;;;;;;;;;19.60;99.90;;;;;;5021819;28;20004;-77
2022/08/16 03:37:42;;;;;;;;;;;19.60;99.90;;;;;;5019500;28;19906;-77
2022/08/16 03:40:08;;;;;;;;;;;19.60;99.90;;;;;;5010297;28;19913;-77
2022/08/16 03:42:34;;;;;;;;;;;19.60;99.90;;;;;;5008746;28;19916;-74
2022/08/16 03:45:00;;;;;;;;;;;19.60;99.90;;;;;;5019718;28;19999;-73
2022/08/16 03:47:28;;;;;;;;;;;19.70;99.90;;;;;;5016187;28;19906;-77
2022/08/16 03:49:54;;;;;;;;;;;19.60;99.90;;;;;;5019360;28;20438;-77
2022/08/16 03:52:21;;;;;;;;;;;19.70;99.90;;;;;;5019494;28;19917;-77
2022/08/16 03:54:49;;;;;;;;;;;19.60;99.90;;;;;;5019710;28;19905;-77
2022/08/16 03:57:15;;;;;;;;;;;19.60;99.90;;;;;;5018840;28;19956;-76
2022/08/16 03:59:40;;;;;;;;;;;19.60;99.90;;;;;;5019366;28;19909;-77
2022/08/16 04:02:06;;;;;;;;;;;19.60;99.90;;;;;;5019247;28;19905;-73
2022/08/16 04:04:34;;;;;;;;;;;19.60;99.90;;;;;;5019431;28;19972;-77
2022/08/16 04:07:01;;;;;;;;;;;19.50;99.90;;;;;;5019294;28;20351;-77
2022/08/16 04:09:26;;;;;;;;;;;19.50;99.90;;;;;;5019098;28;20439;-74
2022/08/16 04:11:52;;;;;;;;;;;19.40;99.90;;;;;;5015533;28;19915;-73
2022/08/16 04:14:17;;;;;;;;;;;19.40;99.90;;;;;;5015575;28;19906;-78
2022/08/16 04:16:43;;;;;;;;;;;19.40;99.90;;;;;;5018608;28;19920;-77
2022/08/16 04:19:08;;;;;;;;;;;19.40;99.90;;;;;;5016852;28;19955;-77
2022/08/16 04:21:35;;;;;;;;;;;19.30;99.90;;;;;;5016458;28;19905;-73
2022/08/16 04:24:01;;;;;;;;;;;19.30;99.90;;;;;;5015979;28;19913;-74
2022/08/16 04:26:27;;;;;;;;;;;19.20;99.90;;;;;;5016010;28;20381;-76
2022/08/16 04:28:52;;;;;;;;;;;19.20;99.90;;;;;;5014331;28;19956;-74
2022/08/16 04:31:18;;;;;;;;;;;19.20;99.90;;;;;;5014944;28;19932;-74
2022/08/16 04:33:44;;;;;;;;;;;19.10;99.90;;;;;;5015002;28;20265;-77
2022/08/16 04:36:10;;;;;;;;;;;19.20;99.90;;;;;;5016012;28;19932;-73
2022/08/16 04:38:35;;;;;;;;;;;19.10;99.90;;;;;;5015702;28;20276;-77
2022/08/16 04:41:01;;;;;;;;;;;19.10;99.90;;;;;;5013436;28;19909;-77
2022/08/16 04:43:27;;;;;;;;;;;19.10;99.90;;;;;;5008792;28;19905;-77
2022/08/16 04:45:52;;;;;;;;;;;19.00;99.90;;;;;;5012206;28;19913;-76
2022/08/16 04:48:18;;;;;;;;;;;19.00;99.90;;;;;;5016071;28;19912;-74
2022/08/16 04:50:43;;;;;;;;;;;19.00;99.90;;;;;;5015404;28;19909;-77
2022/08/16 04:53:09;;;;;;;;;;;19.00;99.90;;;;;;5015432;28;19917;-77
2022/08/16 04:55:34;;;;;;;;;;;19.00;99.90;;;;;;5015149;28;19933;-73
2022/08/16 04:58:01;;;;;;;;;;;19.00;99.90;;;;;;5014907;28;20315;-77
2022/08/16 05:00:32;;;;;;;;;;;19.00;99.90;;;;;;5015087;28;20410;-74
2022/08/16 05:02:58;;;;;;;;;;;19.10;99.90;;;;;;5015419;28;19905;-73
2022/08/16 05:05:24;;;;;;;;;;;19.00;99.90;;;;;;5013706;28;20008;-76
2022/08/16 05:07:50;;;;;;;;;;;19.00;99.90;;;;;;5015392;28;19989;-76
2022/08/16 05:10:16;;;;;;;;;;;19.00;99.90;;;;;;5014857;28;19909;-74
2022/08/16 05:12:42;;;;;;;;;;;19.00;99.90;;;;;;5014614;28;20364;-76
2022/08/16 05:15:08;;;;;;;;;;;19.00;99.90;;;;;;5014805;28;19980;-73
2022/08/16 05:17:33;;;;;;;;;;;19.00;99.90;;;;;;5013578;28;20288;-74
2022/08/16 05:19:59;;;;;;;;;;;18.90;99.90;;;;;;5016206;28;19910;-76
2022/08/16 05:22:25;;;;;;;;;;;18.90;99.90;;;;;;5014384;28;19917;-76
2022/08/16 05:24:50;;;;;;;;;;;18.90;99.90;;;;;;5010631;28;19963;-76
2022/08/16 05:27:16;;;;;;;;;;;18.90;99.90;;;;;;5013328;28;19928;-74
2022/08/16 05:29:42;;;;;;;;;;;18.90;99.90;;;;;;5014467;28;20278;-74
2022/08/16 05:32:07;;;;;;;;;;;18.90;99.90;;;;;;5014635;28;19916;-73
2022/08/16 05:34:33;;;;;;;;;;;18.90;99.90;;;;;;5013687;28;20366;-76
2022/08/16 05:36:59;;;;;;;;;;;18.90;99.90;;;;;;5012566;28;19906;-77
2022/08/16 05:39:25;;;;;;;;;;;18.90;99.90;;;;;;5014019;28;19992;-73
2022/08/16 05:41:51;;;;;;;;;;;18.90;99.90;;;;;;5013266;28;20016;-74
2022/08/16 05:44:17;;;;;;;;;;;18.90;99.90;;;;;;5013820;28;19944;-76
2022/08/16 05:46:44;;;;;;;;;;;18.90;99.90;;;;;;5013982;28;19910;-77
2022/08/16 05:49:12;;;;;;;;;;;19.00;99.90;;;;;;5014020;28;19905;-77
2022/08/16 05:51:38;;;;;;;;;;;19.00;99.90;;;;;;5013742;28;20007;-74
2022/08/16 05:54:04;;;;;;;;;;;19.00;99.90;;;;;;5013756;28;20012;-74
2022/08/16 05:56:29;;;;;;;;;;;19.00;99.90;;;;;;5013324;28;20283;-74
2022/08/16 05:58:55;;;;;;;;;;;19.00;99.90;;;;;;5007765;28;19911;-78
2022/08/16 06:01:20;;;;;;;;;;;19.00;99.90;;;;;;5002527;28;19906;-79
2022/08/16 06:03:46;;;;;;;;;;;19.00;99.90;;;;;;5011342;28;19906;-73
2022/08/16 06:06:11;;;;;;;;;;;19.00;99.90;;;;;;5011679;28;19945;-73
2022/08/16 06:08:37;;;;;;;;;;;19.00;99.90;;;;;;5012022;28;19980;-73
2022/08/16 06:11:02;;;;;;;;;;;19.00;99.90;;;;;;5011388;28;19924;-78
2022/08/16 06:13:28;;;;;;;;;;;19.00;99.90;;;;;;5013892;28;19906;-72
2022/08/16 06:15:53;;;;;;;;;;;19.00;99.90;;;;;;5007321;28;19936;-77
2022/08/16 06:18:19;;;;;;;;;;;18.90;99.90;;;;;;5012412;28;19913;-78
2022/08/16 06:20:44;;;;;;;;;;;18.80;99.90;;;;;;5014518;28;19905;-72
2022/08/16 06:23:10;;;;;;;;;;;18.80;99.90;;;;;;5013756;28;19913;-72
2022/08/16 06:25:36;;;;;;;;;;;18.80;99.90;;;;;;5013703;28;19916;-70
2022/08/16 06:28:03;;;;;;;;;;;18.80;99.90;;;;;;5013220;28;19912;-72
2022/08/16 06:30:31;;;;;;;;;;;18.70;99.90;;;;;;5013405;28;19905;-72
2022/08/16 06:32:56;;;;;;;;;;;18.60;99.90;;;;;;5012372;28;20031;-72
2022/08/16 06:35:23;;;;;;;;;;;18.60;99.90;;;;;;5012265;28;19996;-76
2022/08/16 06:37:48;;;;;;;;;;;18.60;99.90;;;;;;5011090;28;19905;-77
2022/08/16 06:40:14;;;;;;;;;;;18.70;99.90;;;;;;5004796;28;19921;-72
2022/08/16 06:42:39;;;;;;;;;;;18.70;99.90;;;;;;5004523;28;19941;-76
2022/08/16 06:45:05;;;;;;;;;;;18.70;99.90;;;;;;5009056;28;19910;-71
2022/08/16 06:47:31;;;;;;;;;;;18.80;99.90;;;;;;5004949;28;19909;-72
2022/08/16 06:49:57;;;;;;;;;;;18.90;99.90;;;;;;5011042;28;19928;-78
2022/08/16 06:52:22;;;;;;;;;;;18.80;99.90;;;;;;5012107;28;19921;-78
2022/08/16 06:54:48;;;;;;;;;;;18.80;99.90;;;;;;5009162;28;20391;-72
2022/08/16 06:57:13;;;;;;;;;;;19.00;99.90;;;;;;5007895;28;19948;-73
2022/08/16 06:59:39;;;;;;;;;;;19.10;99.90;;;;;;5010464;28;19905;-71
2022/08/16 07:02:04;;;;;;;;;;;19.10;99.90;;;;;;5011940;28;20335;-79
2022/08/16 07:04:30;;;;;;;;;;;19.10;99.90;;;;;;5012476;28;19917;-73
2022/08/16 07:06:56;;;;;;;;;;;19.10;99.90;;;;;;5006318;28;19913;-72
2022/08/16 07:09:22;;;;;;;;;;;19.20;99.90;;;;;;5006402;28;19909;-78
2022/08/16 07:11:47;;;;;;;;;;;19.20;99.90;;;;;;5010538;28;19913;-72
2022/08/16 07:14:13;;;;;;;;;;;19.20;99.90;;;;;;5011445;28;19916;-77
2022/08/16 07:16:40;;;;;;;;;;;19.20;99.90;;;;;;5013839;28;20352;-78
2022/08/16 07:19:07;;;;;;;;;;;19.30;99.90;;;;;;5006046;28;20357;-77
2022/08/16 07:21:35;;;;;;;;;;;19.40;99.90;;;;;;5003260;28;20000;-77
2022/08/16 07:24:01;;;;;;;;;;;19.50;99.90;;;;;;5002460;28;19912;-78
2022/08/16 07:26:28;;;;;;;;;;;19.70;99.90;;;;;;5008468;28;19912;-72
2022/08/16 07:28:53;;;;;;;;;;;19.80;99.90;;;;;;5010028;28;20000;-78
2022/08/16 07:31:20;;;;;;;;;;;19.90;99.90;;;;;;5006932;28;20003;-78
2022/08/16 07:33:46;;;;;;;;;;;20.10;99.90;;;;;;5006654;28;20390;-75
2022/08/16 07:36:12;;;;;;;;;;;20.20;99.90;;;;;;5009080;28;19905;-73
2022/08/16 07:38:38;;;;;;;;;;;20.40;99.90;;;;;;5005589;28;19964;-73
2022/08/16 07:41:04;;;;;;;;;;;20.30;99.90;;;;;;5005216;28;19910;-73
2022/08/16 07:43:30;;;;;;;;;;;20.30;99.90;;;;;;5015468;28;19988;-72
2022/08/16 07:45:56;;;;;;;;;;;20.40;99.90;;;;;;5013494;28;19905;-73
2022/08/16 07:48:21;;;;;;;;;;;20.50;99.90;;;;;;5005341;28;20396;-72
2022/08/16 07:50:47;;;;;;;;;;;20.60;99.90;;;;;;5015013;28;20036;-73
2022/08/16 07:53:12;;;;;;;;;;;21.00;99.90;;;;;;5008578;28;19917;-75
2022/08/16 07:55:38;;;;;;;;;;;21.40;99.90;;;;;;5006525;28;19913;-73
2022/08/16 07:58:04;;;;;;;;;;;21.90;99.90;;;;;;5013004;28;20423;-77
2022/08/16 08:00:30;;;;;;;;;;;22.60;99.90;;;;;;5011933;28;19916;-77
2022/08/16 08:02:55;;;;;;;;;;;23.50;99.90;;;;;;5010092;28;19913;-73
2022/08/16 08:05:22;;;;;;;;;;;24.90;99.90;;;;;;5008520;28;19938;-73
2022/08/16 08:07:48;;;;;;;;;;;24.60;99.90;;;;;;5010319;28;19909;-73
2022/08/16 08:10:14;;;;;;;;;;;23.90;99.90;;;;;;5014635;28;20434;-75
2022/08/16 08:12:41;;;;;;;;;;;23.00;99.90;;;;;;5007773;28;19960;-73
2022/08/16 08:15:07;;;;;;;;;;;22.60;99.90;;;;;;5005171;28;20280;-73
2022/08/16 08:17:33;;;;;;;;;;;22.40;99.90;;;;;;5008789;28;19917;-73
2022/08/16 08:19:59;;;;;;;;;;;22.40;99.90;;;;;;5013090;28;19910;-78
2022/08/16 08:22:24;;;;;;;;;;;22.30;99.90;;;;;;5019753;28;19995;-78
2022/08/16 08:24:51;;;;;;;;;;;22.20;99.90;;;;;;5019065;28;19916;-78
2022/08/16 08:27:16;;;;;;;;;;;22.00;99.90;;;;;;5011298;28;19951;-73
2022/08/16 08:29:42;;;;;;;;;;;21.80;99.90;;;;;;5010118;28;19959;-73
2022/08/16 08:32:08;;;;;;;;;;;21.70;99.90;;;;;;5020286;28;19913;-73
2022/08/16 08:34:34;;;;;;;;;;;21.70;99.90;;;;;;5011362;28;20380;-78
2022/08/16 08:37:00;;;;;;;;;;;21.80;99.90;;;;;;5016935;28;19912;-78
2022/08/16 08:39:25;;;;;;;;;;;21.90;99.90;;;;;;5012284;28;20036;-73
2022/08/16 08:41:51;;;;;;;;;;;21.80;99.90;;;;;;5023524;28;19913;-73
2022/08/16 08:44:17;;;;;;;;;;;21.90;99.90;;;;;;5011644;28;19909;-73
2022/08/16 08:46:42;;;;;;;;;;;21.90;99.90;;;;;;5013597;28;19910;-78
2022/08/16 08:49:08;;;;;;;;;;;21.80;99.90;;;;;;5017432;28;20329;-79
2022/08/16 08:51:34;;;;;;;;;;;21.60;99.90;;;;;;5014533;28;19913;-78
2022/08/16 08:54:00;;;;;;;;;;;21.30;99.90;;;;;;5005985;28;19914;-78
2022/08/16 08:56:25;;;;;;;;;;;21.30;99.90;;;;;;5008352;28;19909;-73
2022/08/16 08:58:51;;;;;;;;;;;21.30;99.90;;;;;;5011798;28;19917;-79
2022/08/16 09:01:31;;;;;;;;;;;21.20;99.90;;;;;;5017013;28;19937;-78
2022/08/16 09:03:57;;;;;;;;;;;21.20;99.90;;;;;;5008001;28;19909;-73
2022/08/16 09:06:22;;;;;;;;;;;21.30;99.90;;;;;;5008973;28;19913;-78
2022/08/16 09:08:48;;;;;;;;;;;21.30;99.90;;;;;;5007210;28;19913;-73
2022/08/16 09:11:13;;;;;;;;;;;21.30;99.90;;;;;;5006778;28;19961;-74
2022/08/16 09:13:39;;;;;;;;;;;21.40;99.90;;;;;;5011155;28;19910;-73
2022/08/16 09:16:05;;;;;;;;;;;21.50;99.90;;;;;;5017424;28;19913;-79
2022/08/16 09:18:31;;;;;;;;;;;21.40;99.90;;;;;;5013791;28;19936;-73
2022/08/16 09:20:58;;;;;;;;;;;21.40;99.90;;;;;;5010544;28;20474;-73
2022/08/16 09:23:24;;;;;;;;;;;21.50;99.90;;;;;;5008364;28;19913;-73
2022/08/16 09:25:50;;;;;;;;;;;21.50;99.90;;;;;;5011279;28;19909;-80
2022/08/16 09:28:16;;;;;;;;;;;21.40;99.90;;;;;;5010334;28;20000;-74
2022/08/16 09:30:41;;;;;;;;;;;21.40;99.90;;;;;;5013945;28;19917;-79
2022/08/16 09:33:08;;;;;;;;;;;21.50;99.90;;;;;;5009484;28;19909;-79
2022/08/16 09:35:35;;;;;;;;;;;21.50;99.90;;;;;;5013782;28;19992;-73
2022/08/16 09:38:00;;;;;;;;;;;21.50;99.90;;;;;;5009266;28;19917;-74
2022/08/16 09:40:26;;;;;;;;;;;21.30;99.90;;;;;;5010001;28;19924;-76
2022/08/16 09:42:54;;;;;;;;;;;21.00;99.90;;;;;;5009909;28;20339;-75
2022/08/16 09:45:20;;;;;;;;;;;20.40;99.90;;;;;;5010005;28;20028;-79
2022/08/16 09:47:46;;;;;;;;;;;20.20;99.90;;;;;;5015768;28;20038;-73
2022/08/16 09:50:12;;;;;;;;;;;20.00;99.90;;;;;;5008312;28;20285;-73
2022/08/16 09:52:38;;;;;;;;;;;19.90;99.90;;;;;;5008988;28;19968;-78
2022/08/16 09:55:04;;;;;;;;;;;19.90;99.90;;;;;;5008639;28;20720;-78
2022/08/16 09:57:30;;;;;;;;;;;19.90;99.90;;;;;;5008395;28;19909;-78
2022/08/16 09:59:56;;;;;;;;;;;20.20;99.90;;;;;;5011742;28;20003;-73
2022/08/16 10:02:23;;;;;;;;;;;20.40;99.90;;;;;;5009729;28;19972;-78
2022/08/16 10:04:49;;;;;;;;;;;20.90;99.90;;;;;;5009340;28;20343;-78
2022/08/16 10:07:14;;;;;;;;;;;21.40;99.90;;;;;;5011215;28;19910;-78
2022/08/16 10:09:40;;;;;;;;;;;21.60;99.90;;;;;;5013456;28;19936;-73
2022/08/16 10:14:49;;;;;;;;;;;21.20;99.90;;;;;;5011800;28;19936;-73
2022/08/16 10:17:16;;;;;;;;;;;20.80;99.90;;;;;;5011314;28;20404;-73
2022/08/16 10:19:41;;;;;;;;;;;20.70;99.90;;;;;;5013057;28;20273;-78
2022/08/16 10:22:07;;;;;;;;;;;20.80;99.90;;;;;;5007068;28;19913;-78
2022/08/16 10:24:32;;;;;;;;;;;20.70;99.90;;;;;;5009506;28;19925;-78
2022/08/16 10:26:58;;;;;;;;;;;20.70;99.90;;;;;;5009653;28;19917;-77
2022/08/16 10:29:23;;;;;;;;;;;20.70;99.90;;;;;;5011774;28;19912;-78
2022/08/16 10:31:49;;;;;;;;;;;20.70;99.90;;;;;;5020856;28;19964;-78
2022/08/16 10:34:14;;;;;;;;;;;20.70;99.90;;;;;;5006648;28;20000;-73
2022/08/16 10:36:40;;;;;;;;;;;20.60;99.90;;;;;;5007705;28;20017;-78
2022/08/16 10:39:05;;;;;;;;;;;20.50;99.90;;;;;;5010060;28;19957;-73
2022/08/16 10:41:31;;;;;;;;;;;20.40;99.90;;;;;;5007527;28;19981;-73
2022/08/16 10:43:58;;;;;;;;;;;20.40;99.90;;;;;;5008389;28;19953;-77
2022/08/16 10:46:24;;;;;;;;;;;20.40;99.90;;;;;;5002651;28;20357;-78
2022/08/16 10:48:49;;;;;;;;;;;20.30;99.90;;;;;;5010408;28;20281;-78
2022/08/16 10:51:15;;;;;;;;;;;20.10;99.90;;;;;;5013064;28;19971;-73
2022/08/16 10:53:41;;;;;;;;;;;20.00;99.90;;;;;;5008973;28;19975;-73
2022/08/16 10:56:09;;;;;;;;;;;19.80;99.90;;;;;;5008382;28;19913;-73
2022/08/16 10:58:35;;;;;;;;;;;19.70;99.90;;;;;;5003445;28;19914;-78
2022/08/16 11:01:02;;;;;;;;;;;19.60;99.90;;;;;;5010646;28;19964;-79
2022/08/16 11:03:28;;;;;;;;;;;19.40;99.90;;;;;;5012660;28;20388;-73
2022/08/16 11:05:54;;;;;;;;;;;19.30;99.90;;;;;;5005032;28;20364;-72
2022/08/16 11:08:20;;;;;;;;;;;19.10;99.90;;;;;;5008073;28;19964;-72
2022/08/16 11:10:45;;;;;;;;;;;18.90;99.90;;;;;;5005781;28;20013;-78
2022/08/16 11:13:16;;;;;;;;;;;18.80;99.90;;;;;;5010665;28;19960;-72
2022/08/16 11:15:43;;;;;;;;;;;18.70;99.90;;;;;;5007977;28;19916;-78
2022/08/16 11:18:10;;;;;;;;;;;18.50;99.90;;;;;;5010367;28;19916;-73
2022/08/16 11:20:36;;;;;;;;;;;18.40;99.90;;;;;;5009956;28;19913;-77
2022/08/16 11:23:01;;;;;;;;;;;18.30;99.90;;;;;;5015806;28;19909;-77
2022/08/16 11:25:28;;;;;;;;;;;18.30;99.90;;;;;;5015417;28;19910;-73
2022/08/16 11:27:55;;;;;;;;;;;18.20;99.90;;;;;;5016043;28;19917;-74
2022/08/16 11:30:21;;;;;;;;;;;18.10;99.90;;;;;;5012165;28;19909;-77
2022/08/16 11:32:47;;;;;;;;;;;18.10;99.90;;;;;;5015005;28;20031;-74
2022/08/16 11:35:15;;;;;;;;;;;18.20;99.90;;;;;;5012657;28;20012;-78
2022/08/16 11:37:48;;;;;;;;;;;18.20;99.90;;;;;;5012886;28;19913;-78
2022/08/16 11:40:14;;;;;;;;;;;18.30;99.90;;;;;;5008130;28;19993;-75
2022/08/16 11:42:40;;;;;;;;;;;18.20;99.90;;;;;;5007807;28;19917;-77
2022/08/16 11:45:06;;;;;;;;;;;18.10;99.90;;;;;;5013240;28;20039;-76
2022/08/16 11:47:32;;;;;;;;;;;18.10;99.90;;;;;;5016261;28;19909;-77
2022/08/16 11:49:57;;;;;;;;;;;18.20;99.90;;;;;;5017044;28;19912;-77
2022/08/16 11:52:23;;;;;;;;;;;18.40;99.90;;;;;;5011095;28;19918;-75
2022/08/16 11:54:49;;;;;;;;;;;18.50;99.90;;;;;;5013731;28;20285;-76
2022/08/16 11:57:14;;;;;;;;;;;18.70;99.90;;;;;;5013953;28;20002;-75
2022/08/16 11:59:40;;;;;;;;;;;19.00;99.90;;;;;;5010657;28;20008;-75
2022/08/16 12:02:07;;;;;;;;;;;19.30;99.90;;;;;;5014960;28;19909;-74
2022/08/16 12:04:32;;;;;;;;;;;20.00;99.90;;;;;;5016071;28;20388;-76
2022/08/16 12:06:59;;;;;;;;;;;20.70;99.90;;;;;;5012829;28;20007;-76
2022/08/16 12:09:24;;;;;;;;;;;21.20;99.90;;;;;;5012615;28;20387;-73
2022/08/16 12:11:50;;;;;;;;;;;21.50;99.90;;;;;;5011743;28;19921;-74
2022/08/16 12:14:16;;;;;;;;;;;21.90;99.90;;;;;;5017878;28;20339;-76
2022/08/16 12:16:41;;;;;;;;;;;22.10;99.90;;;;;;5015582;28;19913;-77
2022/08/16 12:19:07;;;;;;;;;;;22.00;99.90;;;;;;5011898;28;19916;-73
2022/08/16 12:21:33;;;;;;;;;;;22.20;99.90;;;;;;5013702;28;20127;-72
2022/08/16 12:23:58;;;;;;;;;;;22.50;99.90;;;;;;5012478;28;20270;-73
2022/08/16 12:26:24;;;;;;;;;;;22.50;99.90;;;;;;5018800;28;19917;-76
2022/08/16 12:28:52;;;;;;;;;;;22.80;99.90;;;;;;5012951;28;19979;-73
2022/08/16 12:31:18;;;;;;;;;;;22.90;99.90;;;;;;5014172;28;19936;-73
2022/08/16 12:33:43;;;;;;;;;;;23.10;99.90;;;;;;5013383;28;20410;-77
2022/08/16 12:36:09;;;;;;;;;;;23.40;99.90;;;;;;5016866;28;19992;-73
2022/08/16 12:38:35;;;;;;;;;;;23.40;99.90;;;;;;5006628;28;19959;-74
2022/08/16 12:41:00;;;;;;;;;;;23.40;99.90;;;;;;5012079;28;20016;-74
2022/08/16 12:43:27;;;;;;;;;;;23.30;99.90;;;;;;5008666;28;20419;-76
2022/08/16 12:45:53;;;;;;;;;;;23.60;99.90;;;;;;5012441;28;19913;-73
2022/08/16 12:51:06;;;;;;;;;;;24.80;99.90;;;;;;5012910;28;19923;-74
2022/08/16 12:53:33;;;;;;;;;;;24.80;99.90;;;;;;5008178;28;20008;-76
2022/08/16 12:55:59;;;;;;;;;;;24.80;99.90;;;;;;5011850;28;19913;-76
2022/08/16 12:58:26;;;;;;;;;;;25.30;99.90;;;;;;5010722;28;19915;-74
2022/08/16 13:00:51;;;;;;;;;;;25.50;99.90;;;;;;5015981;28;20012;-77
2022/08/16 13:03:18;;;;;;;;;;;25.60;99.90;;;;;;5015927;28;20323;-75
2022/08/16 13:05:44;;;;;;;;;;;25.50;99.90;;;;;;5016642;28;20296;-75
2022/08/16 13:08:12;;;;;;;;;;;25.40;99.90;;;;;;5016820;28;19959;-77
2022/08/16 13:10:38;;;;;;;;;;;25.20;99.90;;;;;;5012122;28;19920;-77
2022/08/16 13:13:04;;;;;;;;;;;25.60;99.90;;;;;;5012049;28;19924;-74
2022/08/16 13:15:30;;;;;;;;;;;25.70;99.90;;;;;;5013042;28;19913;-74
2022/08/16 13:17:56;;;;;;;;;;;25.90;99.90;;;;;;5013310;28;19918;-77
2022/08/16 13:20:23;;;;;;;;;;;25.90;99.90;;;;;;5010680;28;19916;-78
2022/08/16 13:22:56;;;;;;;;;;;25.90;99.90;;;;;;5007334;28;19941;-76
2022/08/16 13:25:23;;;;;;;;;;;25.30;99.90;;;;;;5010866;28;19913;-77
2022/08/16 13:27:50;;;;;;;;;;;25.20;99.90;;;;;;5011017;28;20387;-73
2022/08/16 13:30:15;;;;;;;;;;;25.00;99.90;;;;;;5008797;28;19959;-73
2022/08/16 13:32:41;;;;;;;;;;;24.80;99.90;;;;;;5007193;28;19917;-77
2022/08/16 13:35:06;;;;;;;;;;;24.50;99.90;;;;;;5011751;28;19916;-74
2022/08/16 13:37:32;;;;;;;;;;;24.40;99.90;;;;;;5008898;28;19917;-77
2022/08/16 13:39:57;;;;;;;;;;;24.50;99.90;;;;;;5011428;28;20004;-74
2022/08/16 13:42:24;;;;;;;;;;;24.70;99.90;;;;;;5015916;28;19921;-77
2022/08/16 13:44:50;;;;;;;;;;;24.30;99.90;;;;;;5009430;28;19936;-78
2022/08/16 13:47:15;;;;;;;;;;;24.20;99.90;;;;;;5015344;28;20344;-78
2022/08/16 13:49:41;;;;;;;;;;;24.60;99.90;;;;;;5011698;28;19909;-74
2022/08/16 13:52:08;;;;;;;;;;;24.90;99.90;;;;;;5013621;28;19920;-78
2022/08/16 13:54:33;;;;;;;;;;;24.60;99.90;;;;;;5012539;28;20308;-74
2022/08/16 13:56:59;;;;;;;;;;;25.00;99.90;;;;;;5008116;28;19910;-75
2022/08/16 13:59:26;;;;;;;;;;;25.30;99.90;;;;;;5010622;28;19921;-78
2022/08/16 14:01:52;;;;;;;;;;;24.80;99.90;;;;;;5013241;28;19963;-74
2022/08/16 14:04:18;;;;;;;;;;;25.00;99.90;;;;;;5003753;28;19909;-78
2022/08/16 14:06:43;;;;;;;;;;;25.00;99.90;;;;;;5011164;28;19924;-74
2022/08/16 14:09:10;;;;;;;;;;;24.70;99.90;;;;;;5006347;28;20352;-74
2022/08/16 14:11:36;;;;;;;;;;;24.80;99.90;;;;;;5011589;28;19975;-74
2022/08/16 14:14:01;;;;;;;;;;;24.80;99.90;;;;;;5017398;28;20348;-78